createdAt,value
2018-11-21T00:00:12.389Z,25.27
2018-11-21T00:02:41.008Z,27.00
2018-11-21T00:05:09.654Z,26.17
2018-11-21T00:07:38.377Z,26.23
2018-11-21T00:10:09.525Z,23.67
2018-11-21T00:12:38.926Z,24.40
2018-11-21T00:15:09.403Z,23.80
2018-11-21T00:17:38.113Z,25.17
2018-11-21T00:20:08.266Z,25.50
2018-11-21T00:22:36.809Z,24.97
2018-11-21T00:25:05.626Z,25.63
2018-11-21T00:27:34.258Z,25.77
2018-11-21T00:30:02.983Z,24.03
2018-11-21T00:32:31.688Z,25.80
2018-11-21T00:35:00.440Z,25.23
2018-11-21T00:37:29.136Z,25.53
2018-11-21T00:39:57.801Z,24.57
2018-11-21T00:42:26.637Z,26.10
2018-11-21T00:44:55.320Z,26.30
2018-11-21T00:47:23.998Z,24.03
2018-11-21T00:49:52.642Z,24.87
2018-11-21T00:52:21.251Z,24.53
2018-11-21T00:54:49.928Z,24.80
2018-11-21T00:57:18.518Z,24.07
2018-11-21T00:59:47.152Z,23.90
2018-11-21T01:02:15.814Z,23.10
2018-11-21T01:04:44.444Z,25.10
2018-11-21T01:07:13.025Z,23.50
2018-11-21T01:09:41.714Z,24.63
2018-11-21T01:12:10.320Z,24.30
2018-11-21T01:14:39.065Z,24.73
2018-11-21T01:17:07.784Z,23.43
2018-11-21T01:19:36.504Z,24.03
2018-11-21T01:22:05.338Z,22.30
2018-11-21T01:24:33.981Z,24.63
2018-11-21T01:27:02.672Z,22.27
2018-11-21T01:29:31.465Z,24.17
2018-11-21T01:32:00.143Z,22.53
2018-11-21T01:34:29.078Z,24.60
2018-11-21T01:36:57.702Z,22.80
2018-11-21T01:39:26.372Z,22.17
2018-11-21T01:41:55.081Z,23.40
2018-11-21T01:44:23.774Z,22.03
2018-11-21T01:46:52.467Z,24.07
2018-11-21T01:49:21.082Z,24.57
2018-11-21T01:51:49.676Z,22.40
2018-11-21T01:54:18.379Z,24.10
2018-11-21T01:56:47.101Z,24.33
2018-11-21T01:59:15.788Z,23.47
2018-11-21T02:01:44.473Z,23.00
2018-11-21T02:04:13.118Z,23.60
2018-11-21T02:06:41.796Z,24.33
2018-11-21T02:09:11.984Z,22.23
2018-11-21T02:11:40.587Z,22.40
2018-11-21T02:14:09.324Z,24.20
2018-11-21T02:16:38.021Z,23.33
2018-11-21T02:19:07.115Z,23.40
2018-11-21T02:21:35.811Z,23.50
2018-11-21T02:24:04.488Z,23.87
2018-11-21T02:26:33.142Z,25.87
2018-11-21T02:29:01.805Z,24.80
2018-11-21T02:31:30.421Z,22.27
2018-11-21T02:33:59.127Z,25.93
2018-11-21T02:36:27.927Z,22.77
2018-11-21T02:38:56.574Z,26.20
2018-11-21T02:41:25.288Z,25.87
2018-11-21T02:43:54.188Z,23.80
2018-11-21T02:46:22.865Z,25.10
2018-11-21T02:48:51.745Z,23.60
2018-11-21T02:51:20.441Z,25.67
2018-11-21T02:53:49.085Z,25.23
2018-11-21T02:56:17.712Z,23.80
2018-11-21T02:58:46.416Z,26.57
2018-11-21T03:01:15.107Z,23.70
2018-11-21T03:03:43.773Z,24.27
2018-11-21T03:06:12.454Z,24.10
2018-11-21T03:08:41.140Z,25.67
2018-11-21T03:11:09.777Z,24.87
2018-11-21T03:13:38.477Z,24.87
2018-11-21T03:16:07.156Z,23.90
2018-11-21T03:18:35.988Z,24.27
2018-11-21T03:21:04.670Z,25.00
2018-11-21T03:23:33.338Z,25.10
2018-11-21T03:26:01.987Z,24.40
2018-11-21T03:28:30.727Z,25.60
2018-11-21T03:30:59.375Z,25.33
2018-11-21T03:33:28.102Z,25.03
2018-11-21T03:35:56.768Z,25.17
2018-11-21T03:38:25.575Z,24.90
2018-11-21T03:40:54.264Z,23.10
2018-11-21T03:43:22.880Z,24.90
2018-11-21T03:45:51.491Z,25.70
2018-11-21T03:48:20.216Z,24.97
2018-11-21T03:50:48.862Z,25.87
2018-11-21T03:53:17.582Z,25.27
2018-11-21T03:55:46.223Z,26.40
2018-11-21T03:58:14.893Z,27.20
2018-11-21T04:00:43.473Z,27.63
2018-11-21T04:03:12.634Z,26.87
2018-11-21T04:05:41.322Z,25.70
2018-11-21T04:08:10.007Z,26.00
2018-11-21T04:10:38.692Z,27.83
2018-11-21T04:13:07.381Z,26.43
2018-11-21T04:15:36.014Z,26.60
2018-11-21T04:18:05.157Z,23.73
2018-11-21T04:20:33.846Z,26.50
2018-11-21T04:23:02.516Z,25.77
2018-11-21T04:25:31.178Z,24.60
2018-11-21T04:27:59.903Z,25.67
2018-11-21T04:30:28.627Z,26.17
2018-11-21T04:32:57.341Z,25.97
2018-11-21T04:35:26.065Z,25.70
2018-11-21T04:37:54.685Z,23.63
2018-11-21T04:40:23.308Z,26.33
2018-11-21T04:42:51.982Z,24.63
2018-11-21T04:45:20.701Z,25.47
2018-11-21T04:47:49.372Z,24.27
2018-11-21T04:50:18.070Z,26.07
2018-11-21T04:52:47.057Z,24.80
2018-11-21T04:55:15.759Z,24.50
2018-11-21T04:57:44.450Z,24.87
2018-11-21T05:04:11.577Z,25.70
2018-11-21T05:06:40.269Z,24.57
2018-11-21T05:09:10.829Z,24.43
2018-11-21T05:11:39.515Z,25.97
2018-11-21T05:14:08.200Z,24.13
2018-11-21T05:16:36.832Z,26.83
2018-11-21T05:19:05.747Z,26.30
2018-11-21T05:21:34.460Z,23.53
2018-11-21T05:24:03.110Z,24.47
2018-11-21T05:26:32.036Z,23.77
2018-11-21T05:29:00.682Z,24.90
2018-11-21T05:31:29.763Z,24.40
2018-11-21T05:33:58.342Z,23.83
2018-11-21T05:36:27.006Z,25.90
2018-11-21T05:38:55.621Z,25.07
2018-11-21T05:41:24.360Z,25.60
2018-11-21T05:43:52.997Z,25.60
2018-11-21T05:46:21.684Z,25.70
2018-11-21T05:48:50.310Z,26.00
2018-11-21T05:51:18.897Z,24.73
2018-11-21T05:53:47.573Z,27.40
2018-11-21T05:56:16.184Z,26.03
2018-11-21T05:58:44.715Z,26.50
2018-11-21T06:01:13.749Z,26.77
2018-11-21T06:03:42.425Z,25.60
2018-11-21T06:06:11.055Z,24.60
2018-11-21T06:08:39.700Z,26.17
2018-11-21T06:11:08.380Z,27.10
2018-11-21T06:13:37.064Z,26.90
2018-11-21T06:16:06.139Z,25.27
2018-11-21T06:18:34.747Z,26.10
2018-11-21T06:21:03.447Z,23.97
2018-11-21T06:23:32.114Z,27.20
2018-11-21T06:26:00.894Z,24.50
2018-11-21T06:28:29.512Z,25.40
2018-11-21T06:30:58.283Z,26.53
2018-11-21T06:33:26.958Z,26.30
2018-11-21T06:35:55.615Z,26.10
2018-11-21T06:38:24.273Z,26.77
2018-11-21T06:40:52.973Z,25.10
2018-11-21T06:43:21.588Z,23.33
2018-11-21T06:45:50.265Z,24.97
2018-11-21T06:48:18.975Z,26.03
2018-11-21T06:50:47.606Z,26.90
2018-11-21T06:53:16.193Z,25.10
2018-11-21T06:55:44.863Z,26.93
2018-11-21T06:58:13.512Z,26.73
2018-11-21T07:00:42.148Z,26.63
2018-11-21T07:03:10.776Z,25.80
2018-11-21T07:05:39.451Z,25.27
2018-11-21T07:08:08.160Z,25.60
2018-11-21T07:10:36.836Z,24.63
2018-11-21T07:13:10.996Z,25.10
2018-11-21T07:15:34.565Z,26.43
2018-11-21T07:18:03.204Z,25.57
2018-11-21T07:20:31.843Z,25.13
2018-11-21T07:23:00.412Z,27.00
2018-11-21T07:25:29.109Z,26.63
2018-11-21T07:27:57.704Z,25.70
2018-11-21T07:30:26.429Z,24.70
2018-11-21T07:32:55.049Z,25.10
2018-11-21T07:35:23.693Z,25.53
2018-11-21T07:37:52.313Z,25.10
2018-11-21T07:40:20.931Z,24.20
2018-11-21T07:42:49.600Z,24.80
2018-11-21T07:45:18.324Z,24.87
2018-11-21T07:47:47.021Z,24.53
2018-11-21T07:50:17.231Z,23.50
2018-11-21T07:52:45.927Z,25.37
2018-11-21T07:55:14.913Z,24.63
2018-11-21T07:57:45.132Z,25.60
2018-11-21T08:00:50.842Z,25.50
2018-11-21T08:03:19.872Z,24.17
2018-11-21T08:05:53.907Z,26.90
2018-11-21T08:08:47.402Z,24.83
2018-11-21T08:11:37.879Z,25.60
2018-11-21T08:14:24.264Z,27.57
2018-11-21T08:17:07.613Z,25.60
2018-11-21T08:19:53.900Z,25.00
2018-11-21T08:22:47.591Z,26.77
2018-11-21T08:25:33.869Z,24.00
2018-11-21T08:28:20.267Z,24.70
2018-11-21T08:30:50.493Z,24.47
2018-11-21T08:33:19.527Z,25.73
2018-11-21T08:35:48.223Z,26.40
2018-11-21T08:38:17.127Z,26.00
2018-11-21T08:40:46.139Z,26.50
2018-11-21T08:43:14.836Z,25.90
2018-11-21T08:45:43.523Z,25.67
2018-11-21T08:48:12.825Z,25.40
2018-11-21T08:50:41.525Z,27.03
2018-11-21T08:53:10.122Z,27.20
2018-11-21T08:55:38.877Z,26.07
2018-11-21T08:58:08.282Z,26.30
2018-11-21T09:00:36.960Z,25.50
2018-11-21T09:03:06.485Z,25.87
2018-11-21T09:05:35.117Z,26.67
2018-11-21T09:08:04.415Z,24.77
2018-11-21T09:13:00.908Z,26.20
2018-11-21T09:15:29.595Z,23.97
2018-11-21T09:17:58.225Z,24.47
2018-11-21T09:20:26.926Z,26.37
2018-11-21T09:22:55.684Z,26.37
2018-11-21T09:25:24.302Z,26.63
2018-11-21T09:27:52.992Z,27.40
2018-11-21T09:30:22.509Z,26.37
2018-11-21T09:32:52.647Z,26.43
2018-11-21T09:35:21.333Z,24.37
2018-11-21T09:37:49.953Z,25.53
2018-11-21T09:40:22.388Z,25.67
2018-11-21T09:42:52.383Z,27.40
2018-11-21T09:45:22.016Z,25.43
2018-11-21T09:47:50.703Z,25.90
2018-11-21T09:50:24.189Z,26.37
2018-11-21T09:52:52.783Z,26.63
2018-11-21T09:55:21.430Z,25.00
2018-11-21T09:57:50.134Z,23.83
2018-11-21T10:00:55.298Z,24.73
2018-11-21T10:03:29.166Z,25.43
2018-11-21T10:06:21.542Z,24.90
2018-11-21T10:09:00.639Z,23.80
2018-11-21T10:11:30.170Z,24.20
2018-11-21T10:13:58.982Z,24.07
2018-11-21T10:16:27.755Z,24.87
2018-11-21T10:18:57.535Z,24.37
2018-11-21T10:21:27.672Z,24.70
2018-11-21T10:23:56.300Z,25.03
2018-11-21T10:26:25.188Z,23.93
2018-11-21T10:28:54.362Z,23.53
2018-11-21T10:31:23.357Z,24.03
2018-11-21T10:33:51.988Z,24.37
2018-11-21T10:36:20.722Z,23.90
2018-11-21T10:38:49.345Z,25.37
2018-11-21T10:41:17.926Z,26.70
2018-11-21T10:43:46.527Z,25.00
2018-11-21T10:46:15.366Z,26.10
2018-11-21T10:48:44.012Z,26.97
2018-11-21T10:51:13.913Z,28.10
2018-11-21T10:53:41.453Z,27.63
2018-11-21T10:56:10.102Z,26.37
2018-11-21T10:58:38.788Z,27.83
2018-11-21T11:01:25.293Z,26.80
2018-11-21T11:03:59.916Z,25.20
2018-11-21T11:06:46.524Z,25.53
2018-11-21T11:09:43.028Z,25.53
2018-11-21T11:12:48.868Z,29.40
2018-11-21T11:15:55.028Z,27.13
2018-11-21T11:18:52.862Z,27.77
2018-11-21T11:21:40.584Z,28.40
2018-11-21T11:24:28.315Z,28.00
2018-11-21T11:27:21.739Z,27.63
2018-11-21T11:30:12.461Z,28.10
2018-11-21T11:33:12.267Z,28.50
2018-11-21T11:35:51.851Z,28.13
2018-11-21T11:38:38.035Z,27.60
2018-11-21T11:41:24.336Z,29.80
2018-11-21T11:44:23.765Z,28.63
2018-11-21T11:47:05.126Z,28.50
2018-11-21T11:49:44.257Z,29.37
2018-11-21T11:52:32.927Z,28.60
2018-11-21T11:55:29.502Z,28.50
2018-11-21T11:58:29.079Z,29.23
2018-11-21T12:01:25.492Z,28.73
2018-11-21T12:04:16.273Z,28.70
2018-11-21T12:07:03.027Z,30.10
2018-11-21T12:09:49.306Z,26.63
2018-11-21T12:12:40.085Z,30.40
2018-11-21T12:15:22.210Z,26.13
2018-11-21T12:18:08.952Z,27.43
2018-11-21T12:21:02.563Z,27.87
2018-11-21T12:23:49.197Z,29.33
2018-11-21T12:26:35.686Z,28.37
2018-11-21T12:29:26.404Z,28.60
2018-11-21T12:32:12.700Z,29.50
2018-11-21T12:34:59.283Z,27.57
2018-11-21T12:37:41.437Z,27.97
2018-11-21T12:40:27.681Z,30.47
2018-11-21T12:43:14.623Z,27.90
2018-11-21T12:46:01.223Z,29.27
2018-11-21T12:49:01.120Z,28.97
2018-11-21T12:51:54.915Z,27.83
2018-11-21T12:54:57.699Z,27.87
2018-11-21T12:57:51.471Z,28.07
2018-11-21T13:00:41.960Z,26.97
2018-11-21T13:03:28.268Z,27.30
2018-11-21T13:06:18.765Z,28.47
2018-11-21T13:09:07.285Z,29.07
2018-11-21T13:11:53.754Z,27.57
2018-11-21T13:14:56.310Z,27.20
2018-11-21T13:17:42.608Z,25.80
2018-11-21T13:20:32.072Z,26.03
2018-11-21T13:23:31.878Z,26.90
2018-11-21T13:26:20.750Z,26.17
2018-11-21T13:28:59.775Z,24.97
2018-11-21T13:31:46.376Z,25.73
2018-11-21T13:34:40.315Z,27.07
2018-11-21T13:37:28.047Z,25.87
2018-11-21T13:40:18.995Z,27.17
2018-11-21T13:43:12.708Z,24.23
2018-11-21T13:45:52.819Z,24.70
2018-11-21T13:48:40.558Z,26.10
2018-11-21T13:51:31.270Z,25.17
2018-11-21T13:54:17.864Z,26.07
2018-11-21T13:56:47.867Z,24.53
2018-11-21T13:59:16.564Z,23.90
2018-11-21T14:01:45.312Z,25.33
2018-11-21T14:04:13.886Z,23.80
2018-11-21T14:06:42.520Z,23.83
2018-11-21T14:09:12.746Z,24.17
2018-11-21T14:11:41.426Z,23.90
2018-11-21T14:14:10.577Z,24.23
2018-11-21T14:16:39.312Z,23.50
2018-11-21T14:19:07.954Z,24.13
2018-11-21T14:21:36.784Z,23.40
2018-11-21T14:24:07.761Z,23.40
2018-11-21T14:26:36.440Z,24.53
2018-11-21T14:29:05.087Z,23.37
2018-11-21T14:31:33.783Z,22.97
2018-11-21T14:34:02.407Z,22.70
2018-11-21T14:36:31.164Z,22.90
2018-11-21T14:38:59.776Z,25.20
2018-11-21T14:41:28.473Z,25.07
2018-11-21T14:43:57.105Z,24.90
2018-11-21T14:46:26.081Z,23.57
2018-11-21T14:48:54.888Z,25.70
2018-11-21T14:51:23.569Z,24.70
2018-11-21T14:53:52.181Z,24.20
2018-11-21T14:56:20.794Z,24.10
2018-11-21T14:58:49.375Z,25.80
2018-11-21T15:01:18.108Z,22.90
2018-11-21T15:03:46.730Z,25.27
2018-11-21T15:06:15.434Z,25.47
2018-11-21T15:08:44.269Z,26.50
2018-11-21T15:11:12.906Z,24.40
2018-11-21T15:13:41.647Z,24.23
2018-11-21T15:16:10.330Z,23.13
2018-11-21T15:18:39.013Z,26.10
2018-11-21T15:21:07.658Z,26.10
2018-11-21T15:23:36.280Z,23.57
2018-11-21T15:26:05.078Z,24.50
2018-11-21T15:28:33.759Z,25.83
2018-11-21T15:31:02.531Z,25.33
2018-11-21T15:33:31.207Z,25.23
2018-11-21T15:35:59.913Z,24.83
2018-11-21T15:38:28.570Z,24.93
2018-11-21T15:40:57.226Z,26.57
2018-11-21T15:43:25.848Z,25.50
2018-11-21T15:45:54.660Z,23.40
2018-11-21T15:48:23.320Z,24.73
2018-11-21T15:50:52.029Z,25.00
2018-11-21T15:53:20.675Z,24.00
2018-11-21T15:55:49.239Z,24.23
2018-11-21T15:58:17.816Z,23.97
2018-11-21T16:00:46.567Z,25.33
2018-11-21T16:03:15.254Z,24.53
2018-11-21T16:05:43.906Z,25.73
2018-11-21T16:08:12.569Z,26.60
2018-11-21T16:10:42.837Z,24.97
2018-11-21T16:13:11.473Z,23.23
2018-11-21T16:15:44.928Z,25.17
2018-11-21T16:18:13.993Z,23.30
2018-11-21T16:20:42.682Z,24.13
2018-11-21T16:23:11.324Z,25.03
2018-11-21T16:25:39.977Z,25.07
2018-11-21T16:28:08.765Z,26.70
2018-11-21T16:30:37.407Z,26.57
2018-11-21T16:33:06.122Z,24.77
2018-11-21T16:35:34.821Z,24.20
